Time;durP1;ratioP1;P1;durP2;ratioP2;P2;SDS_P1;SDS_P2;PMS_P1;PMS_P2;Temp;Humidity;BMP_temperature;BMP_pressure;BME280_temperature;BME280_humidity;BME280_pressure;Samples;Min_cycle;Max_cycle;Signal;HPM_P1;HPM_P2
2023/10/19 00:00:55;;;;;;;16.63;14.93;;;9.30;99.90;;;;;;5050659;28;20442;-69
2023/10/19 00:03:24;;;;;;;17.17;15.57;;;9.30;99.90;;;;;;5050710;28;20442;-69
2023/10/19 00:05:52;;;;;;;15.60;14.23;;;9.30;99.90;;;;;;5050665;28;20450;-69
2023/10/19 00:08:21;;;;;;;16.93;15.50;;;9.20;99.90;;;;;;5050063;28;20473;-70
2023/10/19 00:11:02;;;;;;;16.23;14.83;;;9.20;99.90;;;;;;5051779;28;20472;-70
2023/10/19 00:13:30;;;;;;;16.47;14.97;;;9.20;99.90;;;;;;5054519;28;20781;-69
2023/10/19 00:15:59;;;;;;;17.73;16.23;;;9.10;99.90;;;;;;5054127;28;20493;-69
2023/10/19 00:18:27;;;;;;;16.67;15.17;;;9.10;99.90;;;;;;5052854;28;20931;-69
2023/10/19 00:21:10;;;;;;;17.47;15.90;;;9.10;99.90;;;;;;5054105;28;20441;-69
2023/10/19 00:23:39;;;;;;;16.90;15.30;;;9.00;99.90;;;;;;5054413;28;20453;-69
2023/10/19 00:26:10;;;;;;;17.80;16.30;;;9.00;99.90;;;;;;5054027;28;20792;-69
2023/10/19 00:28:40;;;;;;;18.37;16.77;;;9.00;99.90;;;;;;5054025;28;20508;-69
2023/10/19 00:31:09;;;;;;;18.23;16.43;;;8.90;99.90;;;;;;5052740;28;20469;-69
2023/10/19 00:33:38;;;;;;;17.93;16.33;;;8.90;99.90;;;;;;5054258;28;20796;-70
2023/10/19 00:36:08;;;;;;;18.90;17.20;;;8.90;99.90;;;;;;5052605;28;20495;-69
2023/10/19 00:38:47;;;;;;;18.30;16.60;;;8.90;99.90;;;;;;5054227;28;20431;-69
2023/10/19 00:41:21;;;;;;;18.43;16.93;;;8.80;99.90;;;;;;5052645;28;20426;-69
2023/10/19 00:43:51;;;;;;;20.17;18.20;;;8.80;99.90;;;;;;5053855;28;20421;-69
2023/10/19 00:46:31;;;;;;;20.10;18.37;;;8.80;99.90;;;;;;5052462;28;20983;-69
2023/10/19 00:49:01;;;;;;;19.40;17.80;;;8.80;99.90;;;;;;5052437;28;20515;-69
2023/10/19 00:51:44;;;;;;;21.07;19.07;;;8.70;99.90;;;;;;5052419;28;20844;-69
2023/10/19 00:54:21;;;;;;;20.10;18.50;;;8.70;99.90;;;;;;5053938;28;20509;-69
2023/10/19 00:56:51;;;;;;;20.97;19.00;;;8.70;99.90;;;;;;5052272;28;20556;-69
2023/10/19 00:59:23;;;;;;;20.07;18.33;;;8.70;99.90;;;;;;5052306;28;20488;-69
2023/10/19 01:01:55;;;;;;;22.40;20.40;;;8.60;99.90;;;;;;5053852;28;20781;-69
2023/10/19 01:04:25;;;;;;;20.83;19.10;;;8.60;99.90;;;;;;5052233;28;20444;-70
2023/10/19 01:07:11;;;;;;;22.03;19.90;;;8.60;99.90;;;;;;5052101;28;20462;-70
2023/10/19 01:09:43;;;;;;;21.63;19.67;;;8.60;99.90;;;;;;5052117;28;20441;-69
2023/10/19 01:12:25;;;;;;;21.20;19.40;;;8.60;99.90;;;;;;5052083;28;20458;-69
2023/10/19 01:15:09;;;;;;;22.30;20.27;;;8.50;99.90;;;;;;5052054;28;20520;-69
2023/10/19 01:17:41;;;;;;;21.27;19.37;;;8.50;99.90;;;;;;5051669;28;20552;-70
2023/10/19 01:20:17;;;;;;;20.70;18.77;;;8.50;99.90;;;;;;5052064;28;20466;-69
2023/10/19 01:23:06;;;;;;;22.93;20.93;;;8.50;99.90;;;;;;5053325;28;20513;-70
2023/10/19 01:25:46;;;;;;;22.90;20.80;;;8.50;99.90;;;;;;5051980;28;20533;-70
2023/10/19 01:28:16;;;;;;;22.33;20.23;;;8.50;99.90;;;;;;5051877;28;20477;-70
2023/10/19 01:30:45;;;;;;;22.20;20.00;;;8.50;99.90;;;;;;5051903;28;20461;-69
2023/10/19 01:33:15;;;;;;;21.90;19.90;;;8.50;99.90;;;;;;5053172;28;20433;-69
2023/10/19 01:38:33;;;;;;;23.10;21.00;;;8.40;99.90;;;;;;5051945;28;20445;-70
2023/10/19 01:41:01;;;;;;;23.47;21.37;;;8.40;99.90;;;;;;5053203;28;20414;-70
2023/10/19 01:43:31;;;;;;;23.23;21.03;;;8.40;99.90;;;;;;5051765;28;20451;-70
2023/10/19 01:46:03;;;;;;;24.90;22.40;;;8.40;99.90;;;;;;5053290;28;20418;-69
2023/10/19 01:48:33;;;;;;;24.43;22.03;;;8.30;99.90;;;;;;5053406;28;20414;-70
2023/10/19 01:51:04;;;;;;;24.10;21.90;;;8.30;99.90;;;;;;5051642;28;20470;-69
2023/10/19 01:53:35;;;;;;;25.00;22.50;;;8.30;99.90;;;;;;5053266;28;20418;-69
2023/10/19 01:56:05;;;;;;;26.10;23.40;;;8.30;99.90;;;;;;5051599;28;20860;-69
2023/10/19 01:58:36;;;;;;;25.10;22.77;;;8.30;99.90;;;;;;5051628;28;20438;-69
2023/10/19 02:01:13;;;;;;;24.33;22.03;;;8.30;99.90;;;;;;5052418;28;20434;-70
2023/10/19 02:03:42;;;;;;;25.90;23.23;;;8.30;99.90;;;;;;5053181;28;20418;-69
2023/10/19 02:06:16;;;;;;;25.10;22.80;;;8.30;99.90;;;;;;5053051;28;20446;-69
2023/10/19 02:08:50;;;;;;;25.97;23.47;;;8.30;99.90;;;;;;5051472;28;20901;-70
2023/10/19 02:11:21;;;;;;;25.80;23.40;;;8.30;99.90;;;;;;5053025;28;20454;-70
2023/10/19 02:13:51;;;;;;;25.33;23.00;;;8.20;99.90;;;;;;5051596;28;20849;-70
2023/10/19 02:16:21;;;;;;;26.30;23.80;;;8.20;99.90;;;;;;5051321;28;20480;-69
2023/10/19 02:18:50;;;;;;;27.50;25.00;;;8.20;99.90;;;;;;5053020;28;20415;-69
2023/10/19 02:21:21;;;;;;;26.03;23.70;;;8.20;99.90;;;;;;5051413;28;20433;-70
2023/10/19 02:23:51;;;;;;;25.53;23.17;;;8.20;99.90;;;;;;5051448;28;20775;-69
2023/10/19 02:26:19;;;;;;;26.77;24.10;;;8.20;99.90;;;;;;5051301;28;20502;-70
2023/10/19 02:28:50;;;;;;;25.77;23.37;;;8.20;99.90;;;;;;5053503;28;20430;-70
2023/10/19 02:31:20;;;;;;;24.83;22.60;;;8.20;99.90;;;;;;5055031;28;20587;-70
2023/10/19 02:33:51;;;;;;;26.73;24.30;;;8.20;99.90;;;;;;5056573;28;20500;-69
2023/10/19 02:36:20;;;;;;;27.73;25.03;;;8.20;99.90;;;;;;5056152;28;20454;-69
2023/10/19 02:38:52;;;;;;;26.90;24.27;;;8.20;99.90;;;;;;5056223;28;20440;-69
2023/10/19 02:41:21;;;;;;;27.17;24.70;;;8.20;99.90;;;;;;5054844;28;20442;-69
2023/10/19 02:44:00;;;;;;;26.83;24.37;;;8.20;99.90;;;;;;5055984;28;20433;-69
2023/10/19 02:46:29;;;;;;;27.70;25.10;;;8.20;99.90;;;;;;5056483;28;20458;-69
2023/10/19 02:48:59;;;;;;;27.43;24.90;;;8.20;99.90;;;;;;5056242;28;20844;-69
2023/10/19 02:51:27;;;;;;;26.83;24.43;;;8.20;99.90;;;;;;5054518;28;20480;-69
2023/10/19 02:53:56;;;;;;;28.03;25.23;;;8.20;99.90;;;;;;5054573;28;20872;-69
2023/10/19 02:56:26;;;;;;;27.17;24.67;;;8.20;99.90;;;;;;5054640;28;20565;-69
2023/10/19 02:58:54;;;;;;;28.10;25.33;;;8.20;99.90;;;;;;5056009;28;20422;-69
2023/10/19 03:01:22;;;;;;;29.40;26.60;;;8.20;99.90;;;;;;5054687;28;20443;-69
2023/10/19 03:03:51;;;;;;;27.13;24.63;;;8.20;99.90;;;;;;5055664;28;20768;-69
2023/10/19 03:06:21;;;;;;;28.33;25.57;;;8.10;99.90;;;;;;5056068;28;20489;-69
2023/10/19 03:08:52;;;;;;;21.73;19.47;;;8.10;99.90;;;;;;5055507;28;20470;-70
2023/10/19 03:11:20;;;;;;;29.93;27.00;;;8.10;99.90;;;;;;5055508;28;20430;-69
2023/10/19 03:13:50;;;;;;;28.90;26.20;;;8.10;99.90;;;;;;5054552;28;20438;-70
2023/10/19 03:16:20;;;;;;;31.30;28.40;;;8.10;99.90;;;;;;5054109;28;20573;-70
2023/10/19 03:18:47;;;;;;;31.20;28.20;;;8.10;99.90;;;;;;5055494;28;20419;-69
2023/10/19 03:21:16;;;;;;;31.13;28.27;;;8.10;99.90;;;;;;5055302;28;20449;-69
2023/10/19 03:23:43;;;;;;;31.87;28.77;;;8.10;99.90;;;;;;5055286;28;20442;-69
2023/10/19 03:26:27;;;;;;;30.00;27.00;;;8.10;99.90;;;;;;5055165;28;20464;-69
2023/10/19 03:28:59;;;;;;;32.47;29.30;;;8.10;99.90;;;;;;5055525;28;20411;-69
2023/10/19 03:31:27;;;;;;;31.33;28.40;;;8.10;99.90;;;;;;5053886;28;20438;-69
2023/10/19 03:33:55;;;;;;;31.77;28.67;;;8.10;99.90;;;;;;5055050;28;20507;-69
2023/10/19 03:36:25;;;;;;;33.73;30.47;;;8.00;99.90;;;;;;5054946;28;20970;-69
2023/10/19 03:38:53;;;;;;;32.60;29.40;;;8.10;99.90;;;;;;5055494;28;20434;-69
2023/10/19 03:41:26;;;;;;;24.13;21.67;;;8.00;99.90;;;;;;5053407;28;20458;-69
2023/10/19 03:43:57;;;;;;;31.60;28.70;;;8.00;99.90;;;;;;5053631;28;20970;-69
2023/10/19 03:46:30;;;;;;;31.70;28.50;;;8.00;99.90;;;;;;5053554;28;20576;-69
2023/10/19 03:49:04;;;;;;;31.27;28.27;;;8.00;99.90;;;;;;5053565;28;20446;-69
2023/10/19 03:51:40;;;;;;;30.33;27.43;;;8.00;99.90;;;;;;5054001;28;20881;-69
2023/10/19 03:54:22;;;;;;;32.60;29.50;;;8.00;99.90;;;;;;5053462;28;20488;-70
2023/10/19 03:56:51;;;;;;;31.40;28.50;;;8.00;99.90;;;;;;5054608;28;20462;-69
2023/10/19 03:59:21;;;;;;;31.13;28.17;;;8.00;99.90;;;;;;5053310;28;20445;-69
2023/10/19 04:01:50;;;;;;;33.00;29.90;;;8.00;99.90;;;;;;5053316;28;20450;-69
2023/10/19 04:04:20;;;;;;;31.87;28.77;;;8.00;99.90;;;;;;5054536;28;20596;-70
2023/10/19 04:06:49;;;;;;;33.00;30.00;;;8.00;99.90;;;;;;5054393;28;20462;-70
2023/10/19 04:09:18;;;;;;;32.70;29.60;;;8.00;99.90;;;;;;5054395;28;20536;-70
2023/10/19 04:11:49;;;;;;;32.47;29.47;;;8.00;99.90;;;;;;5054259;28;20473;-69
2023/10/19 04:14:20;;;;;;;32.73;29.77;;;8.00;99.90;;;;;;5054644;28;20418;-70
2023/10/19 04:16:49;;;;;;;33.40;30.10;;;8.00;99.90;;;;;;5054202;28;20511;-69
2023/10/19 04:19:18;;;;;;;34.67;31.27;;;8.00;99.90;;;;;;5054335;28;20492;-69
2023/10/19 04:21:47;;;;;;;34.70;31.30;;;8.00;99.90;;;;;;5054467;28;20478;-70
2023/10/19 04:24:46;;;;;;;33.53;30.37;;;8.00;99.90;;;;;;5054671;28;20441;-70
2023/10/19 04:27:14;;;;;;;33.97;30.63;;;8.00;99.90;;;;;;5053961;28;20497;-70
2023/10/19 04:29:43;;;;;;;34.57;31.23;;;8.00;99.90;;;;;;5054294;28;20438;-69
2023/10/19 04:32:14;;;;;;;34.17;30.63;;;8.00;99.90;;;;;;5054159;28;20469;-70
2023/10/19 04:34:43;;;;;;;34.03;30.77;;;8.00;99.90;;;;;;5053988;28;20430;-69
2023/10/19 04:37:12;;;;;;;32.97;29.87;;;8.00;99.90;;;;;;5053867;28;20461;-70
2023/10/19 04:39:40;;;;;;;33.60;30.50;;;8.00;99.90;;;;;;5053913;28;20437;-70
2023/10/19 04:42:09;;;;;;;35.53;32.03;;;8.00;99.90;;;;;;5053813;28;20802;-69
2023/10/19 04:44:37;;;;;;;33.80;30.40;;;8.00;99.90;;;;;;5053944;28;20951;-69
2023/10/19 04:47:05;;;;;;;32.57;29.47;;;8.00;99.90;;;;;;5053683;28;20457;-69
2023/10/19 04:49:35;;;;;;;32.53;29.37;;;8.00;99.90;;;;;;5052454;28;20446;-70
2023/10/19 04:52:03;;;;;;;32.53;29.43;;;8.00;99.90;;;;;;5053451;28;20449;-69
2023/10/19 04:54:31;;;;;;;33.00;29.70;;;8.00;99.90;;;;;;5053765;28;20484;-69
2023/10/19 04:57:00;;;;;;;33.77;30.50;;;8.00;99.90;;;;;;5053518;28;20461;-70
2023/10/19 04:59:28;;;;;;;33.07;30.03;;;8.00;99.90;;;;;;5053461;28;20786;-69
2023/10/19 05:01:56;;;;;;;31.17;28.27;;;8.00;99.90;;;;;;5052257;28;20442;-69
2023/10/19 05:04:29;;;;;;;32.13;29.10;;;8.00;99.90;;;;;;5053691;28;20422;-69
2023/10/19 05:07:01;;;;;;;32.00;28.80;;;8.00;99.90;;;;;;5053714;28;20476;-69
2023/10/19 05:09:29;;;;;;;29.87;26.97;;;8.00;99.90;;;;;;5053277;28;20486;-70
2023/10/19 05:11:57;;;;;;;30.90;27.70;;;8.00;99.90;;;;;;5053335;28;20469;-70
2023/10/19 05:14:26;;;;;;;32.57;29.27;;;8.00;99.90;;;;;;5053498;28;20520;-70
2023/10/19 05:16:54;;;;;;;29.17;26.27;;;8.00;99.90;;;;;;5053267;28;20989;-69
2023/10/19 05:19:23;;;;;;;30.10;27.30;;;8.00;99.90;;;;;;5053487;28;20445;-69
2023/10/19 05:21:52;;;;;;;31.03;27.93;;;8.00;99.90;;;;;;5053185;28;20445;-69
2023/10/19 05:24:21;;;;;;;29.67;26.93;;;8.00;99.90;;;;;;5053159;28;20430;-70
2023/10/19 05:26:49;;;;;;;30.47;27.27;;;8.00;99.90;;;;;;5053087;28;20461;-69
2023/10/19 05:29:18;;;;;;;29.83;27.20;;;8.00;99.90;;;;;;5053208;28;20434;-70
2023/10/19 05:31:47;;;;;;;28.80;25.97;;;8.00;99.90;;;;;;5051860;28;20449;-70
2023/10/19 05:34:16;;;;;;;30.40;27.40;;;8.00;99.90;;;;;;5053302;28;20466;-70
2023/10/19 05:36:46;;;;;;;30.27;27.33;;;8.00;99.90;;;;;;5053013;28;20457;-70
2023/10/19 05:39:14;;;;;;;30.03;27.30;;;8.00;99.90;;;;;;5053319;28;20845;-70
2023/10/19 05:41:43;;;;;;;31.47;28.47;;;8.00;99.90;;;;;;5051831;28;20442;-69
2023/10/19 05:44:12;;;;;;;29.77;26.87;;;8.00;99.90;;;;;;5053023;28;20993;-69
2023/10/19 05:46:41;;;;;;;29.17;26.47;;;8.00;99.90;;;;;;5052877;28;20541;-70
2023/10/19 05:49:09;;;;;;;29.57;26.77;;;8.00;99.90;;;;;;5053237;28;20444;-69
2023/10/19 05:51:38;;;;;;;28.73;26.13;;;8.00;99.90;;;;;;5052972;28;20444;-70
2023/10/19 05:54:06;;;;;;;28.43;25.80;;;8.00;99.90;;;;;;5052806;28;21073;-70
2023/10/19 05:56:36;;;;;;;26.53;23.83;;;8.00;99.90;;;;;;5051630;28;20470;-71
2023/10/19 05:59:06;;;;;;;28.90;26.10;;;8.00;99.90;;;;;;5051579;28;20454;-70
2023/10/19 06:01:34;;;;;;;25.63;23.33;;;7.90;99.90;;;;;;5052908;28;20425;-70
2023/10/19 06:04:03;;;;;;;25.37;22.90;;;7.90;99.90;;;;;;5055835;28;20472;-70
2023/10/19 06:06:31;;;;;;;23.30;21.27;;;7.90;99.90;;;;;;5058420;28;20464;-70
2023/10/19 06:09:00;;;;;;;24.30;22.00;;;7.90;99.90;;;;;;5057865;28;20519;-70
2023/10/19 06:11:32;;;;;;;23.67;21.37;;;7.90;99.90;;;;;;5056861;28;20430;-70
2023/10/19 06:14:00;;;;;;;24.20;22.00;;;7.90;99.90;;;;;;5057310;28;21018;-70
2023/10/19 06:16:30;;;;;;;24.47;22.27;;;7.90;99.90;;;;;;5056542;28;21013;-70
2023/10/19 06:18:58;;;;;;;24.30;22.10;;;7.90;99.90;;;;;;5056730;28;20856;-70
2023/10/19 06:21:26;;;;;;;25.43;22.97;;;7.90;99.90;;;;;;5055393;28;20484;-70
2023/10/19 06:23:55;;;;;;;25.13;22.63;;;7.90;99.90;;;;;;5057076;28;20434;-70
2023/10/19 06:26:23;;;;;;;22.47;20.40;;;7.90;99.90;;;;;;5057049;28;20533;-70
2023/10/19 06:28:56;;;;;;;23.30;21.20;;;7.90;99.90;;;;;;5056380;28;20438;-70
2023/10/19 06:31:24;;;;;;;23.37;21.07;;;7.90;99.90;;;;;;5055263;28;20448;-70
2023/10/19 06:33:54;;;;;;;22.87;20.87;;;7.90;99.90;;;;;;5054897;28;20982;-70
2023/10/19 06:36:22;;;;;;;22.83;20.73;;;7.90;99.90;;;;;;5056310;28;20556;-70
2023/10/19 06:38:51;;;;;;;22.40;20.30;;;7.90;99.90;;;;;;5056156;28;20536;-70
2023/10/19 06:41:19;;;;;;;20.80;18.80;;;7.90;99.90;;;;;;5056677;28;20784;-70
2023/10/19 06:43:47;;;;;;;21.83;19.80;;;7.90;99.90;;;;;;5056098;28;20531;-70
2023/10/19 06:46:15;;;;;;;21.23;19.27;;;7.90;99.90;;;;;;5055969;28;20501;-69
2023/10/19 06:48:43;;;;;;;21.70;19.63;;;7.90;99.90;;;;;;5056231;28;20442;-70
2023/10/19 06:51:13;;;;;;;20.33;18.43;;;7.90;99.90;;;;;;5055857;28;20449;-70
2023/10/19 06:53:41;;;;;;;20.80;18.90;;;7.90;99.90;;;;;;5055764;28;20466;-70
2023/10/19 06:56:10;;;;;;;19.77;17.97;;;7.90;99.90;;;;;;5056287;28;20521;-70
2023/10/19 06:58:39;;;;;;;18.20;16.60;;;7.90;99.90;;;;;;5055777;28;20470;-70
2023/10/19 07:01:08;;;;;;;17.70;16.10;;;8.00;99.90;;;;;;5056277;28;20468;-69
2023/10/19 07:03:37;;;;;;;17.67;16.03;;;8.00;99.90;;;;;;5056093;28;20423;-70
2023/10/19 07:06:07;;;;;;;20.23;18.33;;;7.90;99.90;;;;;;5055831;28;20525;-70
2023/10/19 07:08:42;;;;;;;20.13;18.23;;;7.90;99.90;;;;;;5055494;28;20460;-70
2023/10/19 07:11:10;;;;;;;18.30;16.60;;;7.90;99.90;;;;;;5055487;28;20953;-70
2023/10/19 07:13:39;;;;;;;20.60;18.70;;;7.90;99.90;;;;;;5055420;28;20862;-70
2023/10/19 07:16:11;;;;;;;19.60;17.80;;;7.90;99.90;;;;;;5055212;28;20469;-69
2023/10/19 07:18:40;;;;;;;19.50;17.73;;;7.90;99.90;;;;;;5055470;28;20437;-69
2023/10/19 07:21:09;;;;;;;20.30;18.50;;;8.00;99.90;;;;;;5055816;28;20788;-69
2023/10/19 07:23:38;;;;;;;20.93;18.97;;;8.00;99.90;;;;;;5055601;28;20873;-70
2023/10/19 07:26:08;;;;;;;21.27;19.37;;;8.00;99.90;;;;;;5055774;28;20488;-70
2023/10/19 07:28:39;;;;;;;20.80;18.60;;;8.00;99.90;;;;;;5055778;28;20480;-70
2023/10/19 07:31:12;;;;;;;20.23;18.37;;;8.00;99.90;;;;;;5055407;28;20999;-70
2023/10/19 07:33:45;;;;;;;21.70;19.70;;;8.00;99.90;;;;;;5055615;28;20819;-69
2023/10/19 07:36:14;;;;;;;21.03;19.17;;;8.00;99.90;;;;;;5055308;28;20425;-70
2023/10/19 07:38:43;;;;;;;21.83;19.83;;;8.00;99.90;;;;;;5055292;28;20444;-69
2023/10/19 07:41:13;;;;;;;20.57;18.67;;;8.00;99.90;;;;;;5055104;28;20529;-70
2023/10/19 07:43:41;;;;;;;19.70;17.90;;;8.00;99.90;;;;;;5055184;28;20533;-70
2023/10/19 07:46:09;;;;;;;20.87;18.83;;;8.00;99.90;;;;;;5054801;28;20434;-69
2023/10/19 07:48:38;;;;;;;19.67;17.87;;;8.00;99.90;;;;;;5054848;28;20450;-70
2023/10/19 07:51:06;;;;;;;20.50;18.70;;;8.00;99.90;;;;;;5055031;28;20434;-70
2023/10/19 07:53:35;;;;;;;20.37;18.60;;;8.00;99.90;;;;;;5054681;28;20448;-70
2023/10/19 07:56:04;;;;;;;20.67;18.67;;;8.00;99.90;;;;;;5054551;28;20464;-70
2023/10/19 07:58:33;;;;;;;19.23;17.60;;;8.00;99.90;;;;;;5054671;28;20442;-70
2023/10/19 08:01:02;;;;;;;18.33;16.80;;;8.00;99.90;;;;;;5055183;28;20517;-69
2023/10/19 08:03:30;;;;;;;17.97;16.27;;;8.00;99.90;;;;;;5054548;28;20836;-70
2023/10/19 08:05:59;;;;;;;17.33;15.73;;;8.10;99.90;;;;;;5054507;28;20959;-69
2023/10/19 08:08:33;;;;;;;17.60;16.10;;;8.10;99.90;;;;;;5054231;28;20466;-70
2023/10/19 08:11:02;;;;;;;17.80;16.30;;;8.10;99.90;;;;;;5054752;28;20424;-70
2023/10/19 08:13:32;;;;;;;16.83;15.30;;;8.10;99.90;;;;;;5054942;28;20448;-70
2023/10/19 08:16:01;;;;;;;16.60;15.10;;;8.10;99.90;;;;;;5054150;28;20562;-70
2023/10/19 08:18:31;;;;;;;16.60;15.10;;;8.10;99.90;;;;;;5054252;28;20474;-70
2023/10/19 08:20:59;;;;;;;16.63;15.03;;;8.10;99.90;;;;;;5054199;28;20465;-70
2023/10/19 08:23:27;;;;;;;16.00;14.57;;;8.10;99.90;;;;;;5054437;28;20446;-71
2023/10/19 08:25:55;;;;;;;16.20;14.90;;;8.10;99.90;;;;;;5053469;28;20491;-71
2023/10/19 08:28:25;;;;;;;15.60;14.20;;;8.10;99.90;;;;;;5053777;28;20469;-71
2023/10/19 08:31:00;;;;;;;16.70;15.20;;;8.10;99.90;;;;;;5054302;28;20447;-71
2023/10/19 08:33:33;;;;;;;19.00;17.30;;;8.10;99.90;;;;;;5054310;28;20509;-71
2023/10/19 08:36:02;;;;;;;15.03;13.73;;;8.20;99.90;;;;;;5054090;28;20454;-71
2023/10/19 08:38:30;;;;;;;15.93;14.57;;;8.20;99.90;;;;;;5054118;28;20437;-71
2023/10/19 08:40:58;;;;;;;15.40;14.10;;;8.20;99.90;;;;;;5053848;28;20438;-70
2023/10/19 08:43:28;;;;;;;15.37;14.10;;;8.20;99.90;;;;;;5052611;28;20470;-70
2023/10/19 08:45:56;;;;;;;15.40;14.10;;;8.20;99.90;;;;;;5053701;28;20959;-71
2023/10/19 08:48:25;;;;;;;14.30;13.10;;;8.20;99.90;;;;;;5053713;28;20445;-70
2023/10/19 08:50:55;;;;;;;14.57;13.37;;;8.30;99.90;;;;;;5052450;28;20857;-70
2023/10/19 08:53:25;;;;;;;14.47;13.27;;;8.30;99.90;;;;;;5053983;28;20421;-70
2023/10/19 08:55:55;;;;;;;14.70;13.40;;;8.30;99.90;;;;;;5053525;28;20488;-70
2023/10/19 08:58:24;;;;;;;13.87;12.73;;;8.30;99.90;;;;;;5052362;28;20955;-70
2023/10/19 09:00:54;;;;;;;14.00;12.73;;;8.30;99.90;;;;;;5054329;28;20783;-70
2023/10/19 09:03:25;;;;;;;13.17;12.07;;;8.30;99.90;;;;;;5052277;28;20469;-70
2023/10/19 09:05:57;;;;;;;12.90;11.87;;;8.30;99.90;;;;;;5053484;28;20422;-70
2023/10/19 09:08:25;;;;;;;12.97;11.83;;;8.30;99.90;;;;;;5052013;28;20457;-70
2023/10/19 09:10:54;;;;;;;12.10;11.07;;;8.30;99.90;;;;;;5053407;28;20868;-70
2023/10/19 09:13:23;;;;;;;13.57;12.47;;;8.30;99.90;;;;;;5053307;28;20438;-70
2023/10/19 09:15:55;;;;;;;13.23;12.10;;;8.30;99.90;;;;;;5053539;28;20490;-70
2023/10/19 09:18:27;;;;;;;11.97;10.93;;;8.30;99.90;;;;;;5052086;28;20464;-70
2023/10/19 09:21:07;;;;;;;11.90;10.90;;;8.30;99.90;;;;;;5053618;28;20418;-71
2023/10/19 09:23:36;;;;;;;12.10;11.20;;;8.30;99.90;;;;;;5053546;28;20806;-71
2023/10/19 09:26:07;;;;;;;10.93;9.93;;;8.30;99.90;;;;;;5053655;28;20472;-71
2023/10/19 09:28:37;;;;;;;11.10;10.20;;;8.30;99.90;;;;;;5053731;28;20804;-70
2023/10/19 09:31:09;;;;;;;11.10;10.10;;;8.30;99.90;;;;;;5053528;28;20449;-70
2023/10/19 09:33:43;;;;;;;11.40;10.40;;;8.40;99.90;;;;;;5053419;28;20504;-71
2023/10/19 09:36:14;;;;;;;12.13;11.13;;;8.40;99.90;;;;;;5052997;28;20473;-70
2023/10/19 09:38:48;;;;;;;10.37;9.57;;;8.40;99.90;;;;;;5055674;28;20421;-70
2023/10/19 09:41:18;;;;;;;10.43;9.53;;;8.40;99.90;;;;;;5056061;28;20441;-70
2023/10/19 09:43:48;;;;;;;10.60;9.73;;;8.40;99.90;;;;;;5057470;28;20441;-70
2023/10/19 09:46:22;;;;;;;10.20;9.30;;;8.40;99.90;;;;;;5057054;28;20453;-70
2023/10/19 09:48:51;;;;;;;10.47;9.67;;;8.50;99.90;;;;;;5057125;28;20445;-70
2023/10/19 09:51:22;;;;;;;10.27;9.47;;;8.50;99.90;;;;;;5057555;28;20525;-70
2023/10/19 09:53:57;;;;;;;9.53;8.73;;;8.50;99.90;;;;;;5055761;28;20438;-70
2023/10/19 09:56:31;;;;;;;9.30;8.60;;;8.50;99.90;;;;;;5056848;28;20568;-70
2023/10/19 09:59:05;;;;;;;9.17;8.47;;;8.50;99.90;;;;;;5057219;28;20418;-70
2023/10/19 10:02:08;;;;;;;9.57;8.87;;;8.50;99.90;;;;;;5056958;28;20973;-71
2023/10/19 10:04:36;;;;;;;10.27;9.40;;;8.50;99.90;;;;;;5055572;28;20469;-71
2023/10/19 10:07:07;;;;;;;10.00;9.20;;;8.50;99.90;;;;;;5056817;28;20537;-71
2023/10/19 10:09:39;;;;;;;8.40;7.70;;;8.50;99.90;;;;;;5056701;28;20445;-71
2023/10/19 10:12:22;;;;;;;9.53;8.73;;;8.50;99.90;;;;;;5056864;28;20422;-71
2023/10/19 10:15:01;;;;;;;8.20;7.53;;;8.50;99.90;;;;;;5056941;28;20509;-71
2023/10/19 10:17:33;;;;;;;8.67;7.97;;;8.50;99.90;;;;;;5057279;28;20797;-71
2023/10/19 10:20:30;;;;;;;8.17;7.57;;;8.50;99.90;;;;;;5056839;28;20422;-71
2023/10/19 10:23:32;;;;;;;8.43;7.73;;;8.60;99.90;;;;;;5056530;28;20429;-71
2023/10/19 10:26:00;;;;;;;7.53;6.93;;;8.60;99.90;;;;;;5023710;28;20441;-71
2023/10/19 10:28:29;;;;;;;8.23;7.50;;;8.60;99.90;;;;;;5055142;28;20474;-70
2023/10/19 10:31:15;;;;;;;8.00;7.40;;;8.60;99.90;;;;;;5056337;28;20492;-70
2023/10/19 10:33:48;;;;;;;7.80;7.20;;;8.60;99.90;;;;;;5056542;28;20468;-70
2023/10/19 10:36:17;;;;;;;8.83;8.13;;;8.60;99.90;;;;;;5056356;28;20508;-71
2023/10/19 10:38:48;;;;;;;9.03;8.27;;;8.60;99.90;;;;;;5056183;28;20442;-70
2023/10/19 10:41:25;;;;;;;9.67;8.93;;;8.60;99.90;;;;;;5056434;28;20913;-70
2023/10/19 10:43:54;;;;;;;7.60;7.00;;;8.60;99.90;;;;;;5056414;28;20465;-70
2023/10/19 10:46:24;;;;;;;9.00;8.30;;;8.60;99.90;;;;;;5056259;28;20458;-71
2023/10/19 10:48:53;;;;;;;8.70;8.00;;;8.70;99.90;;;;;;5055408;28;20874;-70
2023/10/19 10:51:23;;;;;;;8.63;7.93;;;8.70;99.90;;;;;;5055688;28;20442;-70
2023/10/19 10:53:53;;;;;;;8.30;7.70;;;8.70;99.90;;;;;;5056243;28;20505;-70
2023/10/19 10:56:24;;;;;;;9.40;8.70;;;8.70;99.90;;;;;;5055660;28;20888;-70
2023/10/19 10:58:52;;;;;;;8.60;7.90;;;8.70;99.90;;;;;;5056064;28;20418;-71
2023/10/19 11:01:30;;;;;;;9.17;8.47;;;8.70;99.90;;;;;;5055795;28;20465;-70
2023/10/19 11:04:08;;;;;;;7.50;7.00;;;8.70;99.90;;;;;;5055687;28;20529;-70
2023/10/19 11:06:48;;;;;;;8.37;7.77;;;8.70;99.90;;;;;;5054312;28;20470;-71
2023/10/19 11:09:19;;;;;;;8.90;8.20;;;8.70;99.90;;;;;;5056136;28;20583;-70
2023/10/19 11:11:49;;;;;;;8.77;8.07;;;8.70;99.90;;;;;;5055502;28;20452;-70
2023/10/19 11:14:17;;;;;;;9.33;8.60;;;8.80;99.90;;;;;;5055730;28;20935;-70
2023/10/19 11:16:45;;;;;;;9.17;8.37;;;8.80;99.90;;;;;;5055304;28;20477;-70
2023/10/19 11:19:14;;;;;;;8.53;7.83;;;8.80;99.90;;;;;;5055667;28;20434;-70
2023/10/19 11:21:54;;;;;;;8.20;7.60;;;8.80;99.90;;;;;;5055335;28;20496;-70
2023/10/19 11:24:33;;;;;;;9.37;8.67;;;8.90;99.90;;;;;;5055540;28;20446;-70
2023/10/19 11:27:02;;;;;;;8.73;7.93;;;8.90;99.90;;;;;;5055316;28;20920;-70
2023/10/19 11:29:30;;;;;;;8.70;8.00;;;8.90;99.90;;;;;;5055253;28;20856;-70
2023/10/19 11:31:59;;;;;;;9.50;8.70;;;8.90;99.90;;;;;;5055461;28;20454;-70
2023/10/19 11:34:28;;;;;;;9.30;8.60;;;8.90;99.90;;;;;;5055427;28;20807;-70
2023/10/19 11:36:59;;;;;;;9.40;8.70;;;8.90;99.90;;;;;;5054949;28;20480;-70
2023/10/19 11:39:29;;;;;;;9.77;8.97;;;8.90;99.90;;;;;;5055383;28;20426;-70
2023/10/19 11:41:58;;;;;;;9.47;8.70;;;8.90;99.90;;;;;;5054941;28;20529;-70
2023/10/19 11:44:26;;;;;;;9.10;8.40;;;8.90;99.90;;;;;;5054856;28;20443;-70
2023/10/19 11:46:54;;;;;;;10.10;9.30;;;8.90;99.90;;;;;;5054735;28;20455;-71
2023/10/19 11:49:22;;;;;;;9.60;8.90;;;8.90;99.90;;;;;;5054959;28;20442;-70
2023/10/19 11:51:54;;;;;;;11.30;10.40;;;8.90;99.90;;;;;;5055041;28;20458;-70
2023/10/19 11:54:22;;;;;;;9.80;9.00;;;8.90;99.90;;;;;;5054726;28;20430;-70
2023/10/19 11:56:53;;;;;;;9.70;9.00;;;8.90;99.90;;;;;;5054815;28;20482;-70
2023/10/19 11:59:21;;;;;;;10.40;9.50;;;8.90;99.90;;;;;;5054617;28;20897;-70
2023/10/19 12:01:49;;;;;;;10.90;10.00;;;8.80;99.90;;;;;;5054300;28;20430;-70
2023/10/19 12:04:17;;;;;;;10.27;9.47;;;8.90;99.90;;;;;;5054485;28;20504;-70
2023/10/19 12:06:46;;;;;;;11.80;9.83;;;8.90;99.90;;;;;;5053162;28;20462;-70
2023/10/19 12:09:15;;;;;;;11.00;10.10;;;8.90;99.90;;;;;;5054309;28;20453;-70
2023/10/19 12:11:44;;;;;;;10.60;9.80;;;8.90;99.90;;;;;;5054394;28;20434;-70
2023/10/19 12:14:17;;;;;;;11.57;10.57;;;8.90;99.90;;;;;;5054323;28;20418;-70
2023/10/19 12:16:46;;;;;;;11.63;10.73;;;8.90;99.90;;;;;;5052763;28;20998;-70
2023/10/19 12:19:16;;;;;;;12.10;11.20;;;8.90;99.90;;;;;;5054510;28;20919;-70
2023/10/19 12:21:45;;;;;;;12.10;11.20;;;8.90;99.90;;;;;;5054191;28;20444;-70
2023/10/19 12:24:15;;;;;;;13.40;12.20;;;8.90;99.90;;;;;;5054360;28;20457;-70
2023/10/19 12:26:43;;;;;;;12.63;11.63;;;8.90;99.90;;;;;;5053999;28;20460;-70
2023/10/19 12:29:11;;;;;;;13.20;12.20;;;8.90;99.90;;;;;;5053956;28;21025;-70
2023/10/19 12:31:41;;;;;;;10.27;9.47;;;8.90;99.90;;;;;;5054001;28;20500;-70
2023/10/19 12:34:11;;;;;;;13.37;12.37;;;8.90;99.90;;;;;;5054431;28;20837;-70
2023/10/19 12:36:41;;;;;;;12.80;11.90;;;8.90;99.90;;;;;;5054023;28;20978;-70
2023/10/19 12:39:15;;;;;;;14.07;12.87;;;8.90;99.90;;;;;;5053867;28;20446;-70
2023/10/19 12:41:43;;;;;;;14.83;13.73;;;8.80;99.90;;;;;;5052621;28;20500;-70
2023/10/19 12:44:12;;;;;;;13.77;12.67;;;8.80;99.90;;;;;;5054032;28;20430;-70
2023/10/19 12:46:41;;;;;;;13.40;12.30;;;8.80;99.90;;;;;;5053621;28;20450;-71
2023/10/19 12:49:14;;;;;;;14.27;13.17;;;8.90;99.90;;;;;;5053806;28;20464;-70
2023/10/19 12:51:44;;;;;;;14.10;13.00;;;8.80;99.90;;;;;;5053939;28;20762;-70
2023/10/19 12:54:13;;;;;;;14.00;12.87;;;8.80;99.90;;;;;;5053823;28;20769;-70
2023/10/19 12:56:41;;;;;;;13.73;12.63;;;8.80;99.90;;;;;;5053793;28;20549;-71
2023/10/19 12:59:10;;;;;;;15.00;13.83;;;8.80;99.90;;;;;;5053546;28;20517;-70
2023/10/19 13:01:39;;;;;;;15.93;14.70;;;8.80;99.90;;;;;;5054674;28;20844;-70